Time;durP1;ratioP1;P1;durP2;ratioP2;P2;SDS_P1;SDS_P2;PMS_P1;PMS_P2;Temp;Humidity;BMP_temperature;BMP_pressure;BME280_temperature;BME280_humidity;BME280_pressure;Samples;Min_cycle;Max_cycle;Signal;HPM_P1;HPM_P2
2023/04/14 00:01:59;;;;;;;10.13;2.60;;;3.30;99.90;;;;;;4860289;29;20049;-76
2023/04/14 00:04:26;;;;;;;9.68;2.60;;;3.30;99.90;;;;;;4875729;29;20049;-76
2023/04/14 00:06:55;;;;;;;10.40;2.97;;;3.30;99.90;;;;;;4845005;29;20053;-76
2023/04/14 00:09:22;;;;;;;10.98;2.92;;;3.30;99.90;;;;;;4857370;29;20102;-76
2023/04/14 00:11:49;;;;;;;8.68;2.83;;;3.40;99.90;;;;;;4857563;29;20046;-76
2023/04/14 00:14:16;;;;;;;8.85;2.40;;;3.20;99.90;;;;;;4842167;29;20042;-76
2023/04/14 00:16:45;;;;;;;11.57;2.80;;;3.30;99.90;;;;;;4869026;29;20109;-76
2023/04/14 00:19:11;;;;;;;6.72;2.70;;;3.20;99.90;;;;;;4875678;29;20050;-76
2023/04/14 00:21:38;;;;;;;7.82;2.90;;;3.60;99.90;;;;;;4875933;29;20044;-76
2023/04/14 00:24:05;;;;;;;16.45;3.10;;;3.30;99.90;;;;;;4890779;29;20037;-76
2023/04/14 00:26:34;;;;;;;11.23;3.17;;;3.20;99.90;;;;;;4856044;29;20038;-76
2023/04/14 00:29:01;;;;;;;11.43;2.90;;;3.20;99.90;;;;;;4857297;29;20045;-76
2023/04/14 00:31:27;;;;;;;8.55;2.75;;;3.20;99.90;;;;;;4857096;29;20498;-76
2023/04/14 00:33:54;;;;;;;9.85;2.88;;;3.20;99.90;;;;;;4857035;29;20049;-76
2023/04/14 00:36:21;;;;;;;10.93;3.03;;;3.20;99.90;;;;;;4857717;29;20054;-75
2023/04/14 00:38:48;;;;;;;8.65;2.83;;;3.20;99.90;;;;;;4856897;29;20065;-76
2023/04/14 00:41:14;;;;;;;9.27;2.58;;;3.40;99.90;;;;;;4841871;29;20049;-76
2023/04/14 00:43:41;;;;;;;10.60;2.90;;;3.10;99.90;;;;;;4857225;29;20050;-76
2023/04/14 00:46:08;;;;;;;15.32;2.95;;;3.40;99.90;;;;;;4871780;29;20057;-76
2023/04/14 00:48:35;;;;;;;11.45;2.85;;;3.10;99.90;;;;;;4858693;29;20186;-76
2023/04/14 00:51:03;;;;;;;12.27;2.90;;;3.50;99.90;;;;;;4875296;29;20065;-76
2023/04/14 00:53:31;;;;;;;10.07;2.60;;;3.10;99.90;;;;;;4875584;29;20747;-76
2023/04/14 00:55:59;;;;;;;8.60;2.72;;;3.10;99.90;;;;;;4875512;29;20054;-76
2023/04/14 00:58:26;;;;;;;8.38;2.67;;;3.00;99.90;;;;;;4859155;29;20759;-76
2023/04/14 01:00:54;;;;;;;15.13;2.90;;;3.10;99.90;;;;;;4878714;29;20041;-76
2023/04/14 01:03:23;;;;;;;7.88;2.88;;;3.30;99.90;;;;;;4863102;29;20399;-76
2023/04/14 01:05:50;;;;;;;11.02;3.08;;;3.00;99.90;;;;;;4894166;29;20050;-76
2023/04/14 01:08:18;;;;;;;13.82;3.08;;;3.00;99.90;;;;;;4893449;29;20157;-76
2023/04/14 01:11:11;;;;;;;10.68;3.00;;;3.00;99.90;;;;;;4878852;29;20041;-76
2023/04/14 01:14:13;;;;;;;11.73;2.92;;;3.00;99.90;;;;;;4878391;29;20507;-76
2023/04/14 01:16:44;;;;;;;6.70;3.17;;;2.90;99.90;;;;;;4864240;29;20057;-76
2023/04/14 01:19:42;;;;;;;9.23;3.08;;;2.80;99.90;;;;;;4893636;29;20053;-76
2023/04/14 01:22:09;;;;;;;14.32;3.75;;;2.90;99.90;;;;;;4877936;29;20041;-76
2023/04/14 01:24:42;;;;;;;9.43;3.17;;;2.90;99.90;;;;;;4878257;29;20077;-76
2023/04/14 01:27:30;;;;;;;8.63;3.03;;;2.90;99.90;;;;;;4893153;29;20053;-76
2023/04/14 01:30:21;;;;;;;7.78;2.90;;;2.90;99.90;;;;;;4893339;29;20479;-76
2023/04/14 01:32:50;;;;;;;7.80;3.08;;;2.90;99.90;;;;;;4877744;29;20182;-76
2023/04/14 01:35:22;;;;;;;11.32;3.40;;;2.90;99.90;;;;;;4892993;29;20052;-76
2023/04/14 01:37:58;;;;;;;11.88;3.13;;;3.00;99.90;;;;;;4877829;29;20049;-76
2023/04/14 01:40:26;;;;;;;11.02;3.40;;;2.90;99.90;;;;;;4877862;29;20776;-76
2023/04/14 01:43:01;;;;;;;12.05;3.30;;;2.90;99.90;;;;;;4878045;29;20045;-76
2023/04/14 01:45:33;;;;;;;13.90;3.58;;;2.90;99.90;;;;;;4877460;29;20152;-76
2023/04/14 01:48:00;;;;;;;15.48;3.92;;;3.00;99.90;;;;;;4893358;29;20528;-76
2023/04/14 01:50:29;;;;;;;8.20;2.80;;;2.90;99.90;;;;;;4862198;29;20061;-76
2023/04/14 01:52:57;;;;;;;9.40;3.60;;;2.90;99.90;;;;;;4892833;29;20113;-76
2023/04/14 01:55:26;;;;;;;11.07;3.25;;;3.00;99.90;;;;;;4877561;29;20052;-76
2023/04/14 01:57:56;;;;;;;9.77;3.00;;;2.90;99.90;;;;;;4893024;29;20041;-76
2023/04/14 02:00:24;;;;;;;8.77;2.90;;;3.00;99.90;;;;;;4858337;29;20568;-76
2023/04/14 02:02:53;;;;;;;9.88;3.00;;;2.80;99.90;;;;;;4874592;29;20128;-76
2023/04/14 02:05:21;;;;;;;7.63;3.25;;;2.90;99.90;;;;;;4858918;29;20498;-76
2023/04/14 02:07:50;;;;;;;11.50;3.08;;;2.80;99.90;;;;;;4859175;29;20118;-76
2023/04/14 02:10:19;;;;;;;6.00;2.97;;;2.90;99.90;;;;;;4874710;29;20042;-76
2023/04/14 02:12:47;;;;;;;11.98;3.35;;;2.80;99.90;;;;;;4877235;29;20061;-76
2023/04/14 02:15:17;;;;;;;10.43;3.33;;;2.80;99.90;;;;;;4862289;29;20084;-76
2023/04/14 02:17:47;;;;;;;8.07;3.13;;;3.30;99.90;;;;;;4877645;29;20140;-76
2023/04/14 02:20:14;;;;;;;11.20;3.58;;;2.80;99.90;;;;;;4877450;29;20400;-76
2023/04/14 02:22:41;;;;;;;11.45;3.35;;;2.80;99.90;;;;;;4877232;29;20165;-76
2023/04/14 02:25:08;;;;;;;10.80;3.05;;;3.20;99.90;;;;;;4877359;29;20132;-76
2023/04/14 02:27:47;;;;;;;10.60;3.33;;;2.80;99.90;;;;;;4876962;29;20097;-76
2023/04/14 02:30:18;;;;;;;9.48;3.25;;;2.80;99.90;;;;;;4892524;29;20076;-76
2023/04/14 02:32:50;;;;;;;9.30;3.60;;;2.70;99.90;;;;;;4892475;29;20105;-76
2023/04/14 02:35:23;;;;;;;15.98;3.75;;;2.90;99.90;;;;;;4892258;29;20045;-76
2023/04/14 02:37:56;;;;;;;8.02;3.20;;;3.10;99.90;;;;;;4877045;29;20422;-76
2023/04/14 02:40:30;;;;;;;9.80;3.63;;;2.70;99.90;;;;;;4876820;29;20038;-76
2023/04/14 02:43:03;;;;;;;10.18;3.65;;;3.30;99.90;;;;;;4892077;29;20045;-76
2023/04/14 02:45:31;;;;;;;8.73;3.70;;;2.90;99.90;;;;;;4876923;29;20056;-76
2023/04/14 02:48:05;;;;;;;10.90;3.80;;;3.00;99.90;;;;;;4891890;29;20048;-76
2023/04/14 02:50:34;;;;;;;8.55;3.28;;;3.00;99.90;;;;;;4891591;29;20475;-76
2023/04/14 02:53:02;;;;;;;8.23;3.33;;;3.00;99.90;;;;;;4846360;29;20056;-76
2023/04/14 02:55:30;;;;;;;8.77;3.50;;;3.10;99.90;;;;;;4891825;29;20060;-76
2023/04/14 02:57:58;;;;;;;13.05;3.42;;;3.10;99.90;;;;;;4861779;29;20056;-76
2023/04/14 03:00:26;;;;;;;10.80;3.30;;;3.30;99.90;;;;;;4860396;29;20124;-76
2023/04/14 03:02:54;;;;;;;11.50;3.10;;;3.80;99.90;;;;;;4891865;29;20068;-76
2023/04/14 03:05:22;;;;;;;10.80;3.38;;;3.20;99.90;;;;;;4876718;29;20058;-76
2023/04/14 03:07:52;;;;;;;12.77;3.38;;;3.30;99.90;;;;;;4876396;29;20104;-76
2023/04/14 03:10:21;;;;;;;9.30;3.70;;;3.30;99.90;;;;;;4891695;29;20132;-76
2023/04/14 03:12:49;;;;;;;6.57;3.00;;;3.40;99.90;;;;;;4891646;29;20058;-76
2023/04/14 03:15:17;;;;;;;12.00;3.50;;;3.40;99.90;;;;;;4876522;29;20049;-75
2023/04/14 03:17:47;;;;;;;8.82;3.20;;;3.50;99.90;;;;;;4876159;29;20037;-76
2023/04/14 03:20:18;;;;;;;10.90;3.95;;;3.50;99.90;;;;;;4876362;29;20503;-76
2023/04/14 03:22:47;;;;;;;6.80;2.90;;;3.50;99.90;;;;;;4891314;29;20068;-76
2023/04/14 03:25:14;;;;;;;14.02;3.60;;;3.90;99.90;;;;;;4875810;29;20102;-76
2023/04/14 03:27:44;;;;;;;10.20;2.97;;;3.60;99.90;;;;;;4876253;29;20049;-76
2023/04/14 03:30:13;;;;;;;7.25;2.85;;;3.60;99.90;;;;;;4891393;29;20102;-76
2023/04/14 03:32:42;;;;;;;9.15;3.00;;;3.60;99.90;;;;;;4860879;29;20041;-77
2023/04/14 03:35:11;;;;;;;8.50;3.25;;;3.70;99.90;;;;;;4876232;29;20044;-76
2023/04/14 03:37:40;;;;;;;8.07;3.30;;;3.70;99.90;;;;;;4845826;29;20492;-76
2023/04/14 03:40:13;;;;;;;9.10;3.65;;;3.70;99.90;;;;;;4857670;29;20554;-76
2023/04/14 03:42:43;;;;;;;7.13;2.80;;;3.70;99.90;;;;;;4872452;29;20141;-76
2023/04/14 03:45:10;;;;;;;5.90;3.08;;;3.80;99.90;;;;;;4872824;29;20122;-76
2023/04/14 03:47:37;;;;;;;9.63;3.38;;;3.80;99.90;;;;;;4860283;29;20467;-75
2023/04/14 03:50:07;;;;;;;9.88;3.33;;;3.80;99.90;;;;;;4891453;29;20057;-76
2023/04/14 03:52:36;;;;;;;7.43;3.15;;;3.80;99.90;;;;;;4875713;29;20115;-75
2023/04/14 03:55:05;;;;;;;8.65;3.53;;;3.80;99.90;;;;;;4875853;29;20467;-76
2023/04/14 03:57:33;;;;;;;11.43;3.53;;;3.80;99.90;;;;;;4860401;29;20045;-76
2023/04/14 04:00:04;;;;;;;7.07;3.30;;;3.80;99.90;;;;;;4891255;29;20052;-76
2023/04/14 04:02:31;;;;;;;9.73;3.50;;;3.80;99.90;;;;;;4875824;29;20049;-76
2023/04/14 04:04:59;;;;;;;8.93;3.00;;;3.70;99.90;;;;;;4875868;29;20478;-76
2023/04/14 04:07:27;;;;;;;7.60;3.35;;;3.70;99.90;;;;;;4872261;29;20412;-76
2023/04/14 04:09:55;;;;;;;9.27;3.33;;;4.30;99.90;;;;;;4872439;29;20050;-76
2023/04/14 04:12:24;;;;;;;6.47;3.03;;;3.60;99.90;;;;;;4872414;29;20462;-76
2023/04/14 04:14:51;;;;;;;9.20;3.05;;;3.60;99.90;;;;;;4872602;29;20089;-76
2023/04/14 04:17:20;;;;;;;9.77;3.22;;;3.50;99.90;;;;;;4857544;29;20215;-76
2023/04/14 04:19:49;;;;;;;10.38;3.22;;;3.60;99.90;;;;;;4890597;29;20140;-76
2023/04/14 04:22:19;;;;;;;9.93;3.10;;;3.40;99.90;;;;;;4860388;29;20058;-76
2023/04/14 04:24:47;;;;;;;8.57;3.30;;;3.40;99.90;;;;;;4878870;29;20050;-76
2023/04/14 04:27:15;;;;;;;9.90;3.13;;;3.60;99.90;;;;;;4863407;29;20045;-76
2023/04/14 04:29:41;;;;;;;6.97;3.20;;;3.30;99.90;;;;;;4859850;29;20085;-76
2023/04/14 04:32:08;;;;;;;7.22;3.00;;;3.30;99.90;;;;;;4845208;29;20439;-76
2023/04/14 04:34:36;;;;;;;10.18;2.95;;;3.20;99.90;;;;;;4859937;29;20140;-76
2023/04/14 04:37:03;;;;;;;10.10;3.33;;;3.20;99.90;;;;;;4875483;29;20125;-76
2023/04/14 04:39:29;;;;;;;9.18;3.08;;;3.10;99.90;;;;;;4869370;29;20050;-76
2023/04/14 04:42:04;;;;;;;16.40;4.03;;;3.30;99.90;;;;;;4878327;29;20074;-76
2023/04/14 04:44:32;;;;;;;8.98;3.40;;;3.10;99.90;;;;;;4894249;29;20418;-76
2023/04/14 04:46:59;;;;;;;6.85;3.30;;;3.00;99.90;;;;;;4878288;29;20098;-76
2023/04/14 04:49:26;;;;;;;8.85;3.67;;;3.10;99.90;;;;;;4894087;29;20132;-75
2023/04/14 04:51:53;;;;;;;7.97;3.38;;;3.40;99.90;;;;;;4893731;29;20136;-76
2023/04/14 04:54:20;;;;;;;5.72;2.97;;;3.00;99.90;;;;;;4878659;29;20050;-76
2023/04/14 04:56:47;;;;;;;8.02;3.60;;;3.30;99.90;;;;;;4878780;29;20128;-76
2023/04/14 04:59:13;;;;;;;7.10;3.83;;;3.10;99.90;;;;;;4878776;29;20068;-76
2023/04/14 05:01:40;;;;;;;7.03;3.53;;;3.10;99.90;;;;;;4893968;29;20040;-76
2023/04/14 05:04:07;;;;;;;8.75;3.80;;;3.10;99.90;;;;;;4878536;29;20046;-76
2023/04/14 05:06:36;;;;;;;8.05;3.20;;;3.10;99.90;;;;;;4863079;29;20521;-76
2023/04/14 05:09:03;;;;;;;10.13;3.13;;;3.80;99.90;;;;;;4878387;29;20085;-76
2023/04/14 05:11:31;;;;;;;8.95;3.90;;;3.50;99.90;;;;;;4878400;29;20507;-76
2023/04/14 05:13:58;;;;;;;8.65;3.67;;;3.40;99.90;;;;;;4862443;29;20169;-76
2023/04/14 05:16:24;;;;;;;7.47;3.35;;;3.50;99.90;;;;;;4878216;29;20565;-76
2023/04/14 05:18:51;;;;;;;8.40;3.60;;;3.70;99.90;;;;;;4878032;29;20057;-76
2023/04/14 05:21:18;;;;;;;8.38;4.22;;;3.80;99.90;;;;;;4874601;29;20128;-76
2023/04/14 05:23:45;;;;;;;8.30;3.58;;;3.90;99.90;;;;;;4844916;29;20102;-76
2023/04/14 05:26:13;;;;;;;7.88;3.90;;;4.00;99.90;;;;;;4875067;29;20038;-76
2023/04/14 05:28:40;;;;;;;8.60;3.63;;;4.20;99.90;;;;;;4859766;29;20114;-76
2023/04/14 05:31:07;;;;;;;7.30;3.58;;;4.30;99.90;;;;;;4876092;29;20049;-75
2023/04/14 05:33:34;;;;;;;7.45;3.67;;;4.30;99.90;;;;;;4877864;29;20045;-76
2023/04/14 05:36:01;;;;;;;8.43;3.38;;;4.40;99.90;;;;;;4877145;29;20041;-76
2023/04/14 05:38:27;;;;;;;6.32;3.10;;;4.50;99.90;;;;;;4862731;29;20092;-76
2023/04/14 05:40:54;;;;;;;8.65;3.63;;;4.60;99.90;;;;;;4862518;29;20109;-76
2023/04/14 05:43:21;;;;;;;6.03;3.17;;;4.60;99.90;;;;;;4878055;29;20053;-76
2023/04/14 05:45:48;;;;;;;8.57;3.35;;;4.50;99.90;;;;;;4877479;29;20068;-76
2023/04/14 05:48:16;;;;;;;7.38;3.28;;;4.60;99.90;;;;;;4877925;29;20057;-76
2023/04/14 05:50:42;;;;;;;5.47;3.15;;;4.60;99.90;;;;;;4892971;29;20430;-76
2023/04/14 05:53:10;;;;;;;7.95;3.58;;;4.60;99.90;;;;;;4894302;29;20045;-76
2023/04/14 05:55:39;;;;;;;8.10;3.13;;;4.60;99.90;;;;;;4892966;29;20057;-76
2023/04/14 05:58:06;;;;;;;11.25;3.10;;;4.60;99.90;;;;;;4877644;29;20053;-76
2023/04/14 06:00:33;;;;;;;8.15;3.63;;;4.60;99.90;;;;;;4892808;29;20041;-76
2023/04/14 06:03:00;;;;;;;7.22;2.83;;;4.60;99.90;;;;;;4877078;29;20494;-76
2023/04/14 06:05:26;;;;;;;8.65;3.45;;;4.60;99.90;;;;;;4892525;29;20045;-76
2023/04/14 06:07:53;;;;;;;8.13;3.05;;;4.60;99.90;;;;;;4877184;29;20109;-76
2023/04/14 06:10:20;;;;;;;7.60;3.10;;;4.60;99.90;;;;;;4877277;29;20050;-76
2023/04/14 06:12:46;;;;;;;9.50;3.80;;;4.60;99.90;;;;;;4892392;29;20049;-76
2023/04/14 06:15:13;;;;;;;9.13;2.83;;;4.50;99.90;;;;;;4876132;29;20395;-76
2023/04/14 06:17:40;;;;;;;6.20;3.03;;;4.60;99.90;;;;;;4892627;29;20045;-76
2023/04/14 06:20:07;;;;;;;7.20;3.10;;;4.60;99.90;;;;;;4864079;29;20084;-76
2023/04/14 06:22:34;;;;;;;11.50;3.50;;;4.60;99.90;;;;;;4877160;29;20132;-76
2023/04/14 06:25:01;;;;;;;13.02;3.83;;;4.60;99.90;;;;;;4876944;29;20140;-76
2023/04/14 06:27:28;;;;;;;6.50;2.90;;;4.70;99.90;;;;;;4892723;29;20136;-76
2023/04/14 06:29:56;;;;;;;8.85;3.05;;;4.80;99.90;;;;;;4861603;29;20052;-76
2023/04/14 06:32:23;;;;;;;7.78;3.63;;;4.80;99.90;;;;;;4861942;29;20056;-76
2023/04/14 06:34:50;;;;;;;8.85;3.60;;;4.90;99.90;;;;;;4876861;29;20422;-76
2023/04/14 06:37:16;;;;;;;8.07;3.35;;;5.10;99.90;;;;;;4861639;29;20431;-76
2023/04/14 06:39:43;;;;;;;12.07;3.80;;;5.00;99.90;;;;;;4861567;29;20384;-76
2023/04/14 06:42:11;;;;;;;9.60;3.22;;;5.10;99.90;;;;;;4876706;29;20042;-76
2023/04/14 06:44:39;;;;;;;7.22;3.28;;;5.20;99.90;;;;;;4861871;29;20057;-76
2023/04/14 06:47:06;;;;;;;9.55;2.97;;;5.20;99.90;;;;;;4891879;29;20053;-76
2023/04/14 06:49:32;;;;;;;6.88;3.35;;;5.30;99.90;;;;;;4876826;29;20068;-76
2023/04/14 06:51:59;;;;;;;6.72;2.90;;;5.40;99.90;;;;;;4861112;29;20053;-76
2023/04/14 06:54:26;;;;;;;10.73;3.00;;;5.50;99.90;;;;;;4876521;29;20053;-76
2023/04/14 06:56:53;;;;;;;10.30;3.38;;;5.70;99.90;;;;;;4861202;29;20059;-76
2023/04/14 06:59:21;;;;;;;6.90;3.08;;;5.90;99.90;;;;;;4861217;29;20049;-76
2023/04/14 07:01:48;;;;;;;6.15;3.20;;;6.00;99.90;;;;;;4876638;29;20057;-76
2023/04/14 07:04:15;;;;;;;9.20;2.85;;;6.10;99.90;;;;;;4892656;29;20045;-76
2023/04/14 07:06:42;;;;;;;8.55;2.88;;;6.10;99.90;;;;;;4879781;29;20044;-77
2023/04/14 07:09:08;;;;;;;9.82;3.05;;;6.30;99.90;;;;;;4879503;29;20049;-76
2023/04/14 07:11:35;;;;;;;7.00;2.97;;;6.40;99.90;;;;;;4894667;29;20037;-77
2023/04/14 07:14:01;;;;;;;11.55;2.63;;;6.60;99.90;;;;;;4883417;29;20045;-77
2023/04/14 07:16:28;;;;;;;10.07;2.35;;;6.80;99.90;;;;;;4895125;29;20483;-77
2023/04/14 07:18:55;;;;;;;6.80;2.50;;;6.90;99.90;;;;;;4894827;29;20041;-77
2023/04/14 07:21:21;;;;;;;5.53;2.28;;;7.10;99.90;;;;;;4900005;29;20556;-76
2023/04/14 07:23:48;;;;;;;9.18;2.35;;;7.20;99.90;;;;;;4890405;29;20076;-76
2023/04/14 07:26:15;;;;;;;8.90;2.05;;;7.40;99.90;;;;;;4845461;29;20060;-77
2023/04/14 07:28:42;;;;;;;6.95;2.10;;;7.60;99.90;;;;;;4874795;29;20052;-77
2023/04/14 07:31:09;;;;;;;5.68;1.83;;;7.80;99.90;;;;;;4897854;29;20399;-77
2023/04/14 07:33:36;;;;;;;5.40;1.83;;;7.90;99.90;;;;;;4890634;29;20612;-77
2023/04/14 07:36:03;;;;;;;7.78;3.08;;;8.00;99.90;;;;;;4875245;29;20041;-77
2023/04/14 07:38:33;;;;;;;5.43;1.83;;;8.10;99.90;;;;;;4875476;29;20045;-77
2023/04/14 07:41:03;;;;;;;2.75;1.25;;;8.30;99.90;;;;;;4875466;29;20034;-77
2023/04/14 07:43:33;;;;;;;7.45;1.70;;;8.40;99.90;;;;;;4890967;29;20052;-77
2023/04/14 07:46:03;;;;;;;7.05;1.90;;;8.50;99.90;;;;;;4890907;29;20053;-77
2023/04/14 07:48:31;;;;;;;4.05;1.83;;;8.60;99.90;;;;;;4888468;29;20525;-77
2023/04/14 07:50:58;;;;;;;4.25;1.58;;;8.60;99.90;;;;;;4892758;29;20565;-77
2023/04/14 07:53:25;;;;;;;7.30;1.85;;;8.70;99.90;;;;;;4860521;29;20085;-76
2023/04/14 07:55:51;;;;;;;8.57;2.20;;;8.70;99.90;;;;;;4860445;29;20052;-77
2023/04/14 07:58:18;;;;;;;7.05;1.90;;;8.80;99.90;;;;;;4874889;29;20045;-77
2023/04/14 08:00:45;;;;;;;8.52;2.08;;;8.90;99.90;;;;;;4860934;29;20045;-76
2023/04/14 08:03:12;;;;;;;7.38;1.92;;;9.00;99.90;;;;;;4870973;29;20055;-77
2023/04/14 08:05:39;;;;;;;9.32;2.20;;;9.20;99.90;;;;;;4879079;29;20140;-76
2023/04/14 08:08:05;;;;;;;5.47;1.88;;;9.30;99.90;;;;;;4878669;29;20163;-76
2023/04/14 08:10:33;;;;;;;10.73;1.83;;;9.40;99.90;;;;;;4894301;29;20049;-81
2023/04/14 08:13:00;;;;;;;9.05;2.50;;;9.50;99.90;;;;;;4910648;29;20513;-83
2023/04/14 08:15:27;;;;;;;6.00;1.42;;;9.60;99.90;;;;;;4879762;29;20046;-83
2023/04/14 08:17:53;;;;;;;9.25;1.80;;;9.70;99.90;;;;;;4895011;29;20044;-83
2023/04/14 08:20:20;;;;;;;4.35;1.40;;;9.80;99.90;;;;;;4864963;29;20034;-83
2023/04/14 08:22:47;;;;;;;4.53;1.58;;;9.90;99.90;;;;;;4864681;29;20056;-83
2023/04/14 08:25:13;;;;;;;7.15;1.77;;;10.00;99.90;;;;;;4866247;29;20136;-82
2023/04/14 08:27:40;;;;;;;7.07;2.03;;;10.10;99.90;;;;;;4888412;29;20045;-82
2023/04/14 08:30:08;;;;;;;5.75;1.48;;;10.20;99.90;;;;;;4864851;29;20052;-83
2023/04/14 08:32:34;;;;;;;7.47;1.70;;;10.30;99.90;;;;;;4895302;29;20492;-83
2023/04/14 08:35:02;;;;;;;5.47;1.60;;;10.40;99.90;;;;;;4847160;29;20077;-83
2023/04/14 08:37:28;;;;;;;7.82;1.50;;;10.40;99.90;;;;;;4900957;29;20092;-82
2023/04/14 08:39:55;;;;;;;7.07;1.40;;;10.60;99.90;;;;;;4866861;29;20124;-83
2023/04/14 08:42:23;;;;;;;7.53;1.42;;;10.70;99.90;;;;;;4870514;29;20056;-83
2023/04/14 08:44:51;;;;;;;9.27;2.17;;;10.80;99.90;;;;;;4876186;29;20049;-83
2023/04/14 08:47:22;;;;;;;7.28;1.88;;;10.90;99.90;;;;;;4861172;29;20514;-83
2023/04/14 08:50:01;;;;;;;5.72;1.30;;;11.00;99.90;;;;;;4861468;29;20158;-83
2023/04/14 08:52:29;;;;;;;5.65;1.45;;;11.10;99.90;;;;;;4876118;29;20053;-83
2023/04/14 08:54:59;;;;;;;7.88;1.60;;;11.20;99.90;;;;;;4891706;29;20037;-83
2023/04/14 08:57:26;;;;;;;8.75;1.70;;;11.40;99.90;;;;;;4891674;29;20414;-83
2023/04/14 08:59:56;;;;;;;7.07;1.52;;;11.50;99.90;;;;;;4846313;29;20050;-83
2023/04/14 09:02:23;;;;;;;6.32;2.05;;;11.70;99.90;;;;;;4876427;29;20073;-83
2023/04/14 09:04:51;;;;;;;8.85;2.00;;;11.80;99.90;;;;;;4876528;29;20041;-83
2023/04/14 09:07:20;;;;;;;6.88;2.22;;;11.90;99.90;;;;;;4861263;29;20646;-83
2023/04/14 09:09:47;;;;;;;3.70;1.50;;;12.10;99.90;;;;;;4893699;29;20427;-83
2023/04/14 09:12:16;;;;;;;6.25;1.60;;;12.10;99.90;;;;;;4864003;29;20124;-83
2023/04/14 09:14:45;;;;;;;4.72;1.60;;;12.20;99.90;;;;;;4881033;29;20037;-83
2023/04/14 09:17:12;;;;;;;7.82;1.63;;;12.30;99.90;;;;;;4887948;29;20045;-83
2023/04/14 09:19:39;;;;;;;4.85;1.83;;;12.30;99.90;;;;;;4859270;29;20060;-83
2023/04/14 09:22:06;;;;;;;7.20;1.67;;;12.50;99.90;;;;;;4871103;29;20561;-83
2023/04/14 09:24:33;;;;;;;4.47;1.38;;;12.50;99.90;;;;;;4862026;29;20037;-83
2023/04/14 09:27:04;;;;;;;6.25;1.80;;;12.60;99.90;;;;;;4864799;29;20383;-83
2023/04/14 09:29:32;;;;;;;6.60;1.85;;;12.60;99.90;;;;;;4864317;29;20076;-83
2023/04/14 09:31:59;;;;;;;5.93;1.85;;;12.80;99.90;;;;;;4891212;29;20563;-83
2023/04/14 09:34:25;;;;;;;8.55;1.95;;;12.90;99.90;;;;;;4887455;29;20047;-83
2023/04/14 09:37:01;;;;;;;6.60;2.05;;;12.90;99.90;;;;;;4852457;29;20120;-83
2023/04/14 09:39:28;;;;;;;5.35;1.85;;;13.00;99.90;;;;;;4863477;29;20105;-83
2023/04/14 09:41:55;;;;;;;7.15;2.17;;;13.00;99.90;;;;;;4878922;29;20048;-83
2023/04/14 09:44:22;;;;;;;8.90;1.90;;;13.10;99.90;;;;;;4866510;29;20499;-83
2023/04/14 09:47:05;;;;;;;5.88;1.95;;;13.10;99.90;;;;;;4866018;29;20037;-83
2023/04/14 09:49:32;;;;;;;4.65;1.80;;;13.30;99.90;;;;;;4894732;29;20041;-83
2023/04/14 09:52:07;;;;;;;5.57;1.85;;;13.30;99.90;;;;;;4873445;29;20494;-83
2023/04/14 09:54:34;;;;;;;8.88;2.80;;;13.40;99.90;;;;;;4877373;29;20133;-83
2023/04/14 09:57:01;;;;;;;9.40;2.80;;;13.50;99.90;;;;;;4902575;29;20493;-83
2023/04/14 09:59:37;;;;;;;9.20;2.80;;;13.50;99.90;;;;;;4876797;29;20497;-82
2023/04/14 10:02:07;;;;;;;;;;;13.60;99.90;;;;;;4882875;29;20072;-83
2023/04/14 10:04:35;;;;;;;12.13;3.25;;;13.60;99.90;;;;;;4887063;29;20681;-83
2023/04/14 10:07:11;;;;;;;7.40;3.03;;;13.70;99.90;;;;;;4865995;29;20387;-83
2023/04/14 10:09:37;;;;;;;;;;;13.80;99.90;;;;;;4879121;29;20042;-82
2023/04/14 10:12:12;;;;;;;10.27;3.20;;;13.80;99.90;;;;;;4878601;29;19923;-83
2023/04/14 10:14:40;;;;;;;11.07;3.28;;;14.00;99.90;;;;;;4878636;29;20053;-82
2023/04/14 10:17:07;;;;;;;8.70;3.67;;;14.10;99.90;;;;;;4878538;29;20041;-83
2023/04/14 10:19:35;;;;;;;10.55;3.25;;;14.20;99.90;;;;;;4878259;29;20041;-82
2023/04/14 10:22:03;;;;;;;10.63;4.00;;;14.20;99.90;;;;;;4882552;29;20264;-83
2023/04/14 10:24:30;;;;;;;10.85;4.25;;;14.20;99.90;;;;;;4866974;29;20547;-83
2023/04/14 10:27:01;;;;;;;12.32;4.30;;;14.30;99.90;;;;;;4896914;29;20414;-83
2023/04/14 10:29:29;;;;;;;8.82;3.60;;;14.20;99.90;;;;;;4896764;29;20409;-83
2023/04/14 10:32:08;;;;;;;11.63;3.72;;;14.20;99.90;;;;;;4897244;29;20044;-83
2023/04/14 10:34:37;;;;;;;11.15;3.30;;;14.20;99.90;;;;;;4894635;29;20080;-82
2023/04/14 10:37:22;;;;;;;9.02;3.50;;;14.40;99.90;;;;;;4878143;29;20132;-82
2023/04/14 10:39:58;;;;;;;6.20;3.00;;;14.60;99.90;;;;;;4863054;29;20098;-83
2023/04/14 10:42:25;;;;;;;8.15;3.25;;;14.70;99.90;;;;;;4878124;29;20049;-83
2023/04/14 10:45:09;;;;;;;6.88;3.13;;;14.60;99.90;;;;;;4862975;29;20128;-82
2023/04/14 10:47:39;;;;;;;10.90;3.10;;;14.70;99.90;;;;;;4862895;29;20395;-83
2023/04/14 10:50:17;;;;;;;10.82;3.17;;;14.70;99.90;;;;;;4878099;29;20573;-84
2023/04/14 10:52:57;;;;;;;10.18;2.97;;;14.80;99.90;;;;;;4860224;29;20057;-83
2023/04/14 10:55:26;;;;;;;7.43;2.03;;;14.90;99.90;;;;;;4871571;29;20514;-84
2023/04/14 10:58:05;;;;;;;8.55;2.10;;;14.90;99.90;;;;;;4862695;29;20406;-81
2023/04/14 11:00:37;;;;;;;8.90;2.42;;;14.90;99.90;;;;;;4862496;29;20079;-82
2023/04/14 11:03:09;;;;;;;5.95;1.92;;;14.90;99.90;;;;;;4893150;29;20060;-82
2023/04/14 11:05:42;;;;;;;9.23;2.25;;;14.90;99.90;;;;;;4877572;29;20041;-82
2023/04/14 11:08:15;;;;;;;8.05;2.22;;;14.80;98.70;;;;;;4877659;29;20053;-82
2023/04/14 11:10:49;;;;;;;6.05;1.95;;;14.90;99.90;;;;;;4893168;29;20056;-82
2023/04/14 11:13:16;;;;;;;8.00;2.05;;;14.90;99.90;;;;;;4877493;29;20133;-83
2023/04/14 11:15:56;;;;;;;4.82;1.95;;;14.90;99.90;;;;;;4847039;29;20132;-83
2023/04/14 11:18:28;;;;;;;9.13;2.58;;;15.10;99.90;;;;;;4892918;29;20132;-82
2023/04/14 11:21:10;;;;;;;7.05;2.17;;;15.20;99.90;;;;;;4877539;29;20038;-82
2023/04/14 11:23:37;;;;;;;9.75;2.55;;;15.20;99.90;;;;;;4877342;29;20060;-83
2023/04/14 11:26:09;;;;;;;7.22;2.17;;;15.20;99.90;;;;;;4862264;29;20511;-82
2023/04/14 11:28:39;;;;;;;6.75;1.92;;;15.20;99.90;;;;;;4862591;29;20045;-82
2023/04/14 11:31:07;;;;;;;6.15;2.10;;;15.20;99.90;;;;;;4877565;29;20049;-83
2023/04/14 11:33:36;;;;;;;7.95;2.05;;;15.30;99.90;;;;;;4875971;29;20041;-83
2023/04/14 11:36:08;;;;;;;5.68;2.25;;;15.30;99.70;;;;;;4876938;29;20048;-83
2023/04/14 11:38:39;;;;;;;6.10;2.50;;;15.30;98.10;;;;;;4861821;29;20041;-83
2023/04/14 11:41:07;;;;;;;7.18;2.38;;;15.20;99.90;;;;;;4877308;29;20169;-83
2023/04/14 11:43:36;;;;;;;11.63;2.35;;;15.00;99.90;;;;;;4876930;29;20498;-83
2023/04/14 11:46:04;;;;;;;8.93;2.70;;;14.80;99.90;;;;;;4877411;29;20046;-83
2023/04/14 11:48:31;;;;;;;7.53;2.35;;;14.80;99.90;;;;;;4876690;29;20500;-82
2023/04/14 11:51:02;;;;;;;7.80;2.55;;;14.80;99.90;;;;;;4861594;29;20100;-82
2023/04/14 11:53:28;;;;;;;8.50;2.60;;;14.90;99.90;;;;;;4876754;29;20060;-83
2023/04/14 11:55:59;;;;;;;9.13;2.45;;;15.00;99.90;;;;;;4861789;29;20045;-82
2023/04/14 11:58:26;;;;;;;7.70;2.60;;;15.10;99.90;;;;;;4892224;29;20087;-83
2023/04/14 12:00:54;;;;;;;8.38;2.05;;;15.10;99.90;;;;;;4861889;29;20041;-82
2023/04/14 12:03:24;;;;;;;11.05;2.90;;;15.00;99.90;;;;;;4862233;29;20053;-82
2023/04/14 12:05:58;;;;;;;8.98;2.50;;;14.80;99.90;;;;;;4862451;29;20041;-83
2023/04/14 12:08:25;;;;;;;12.75;2.78;;;14.70;99.90;;;;;;4877367;29;20053;-82
2023/04/14 12:10:52;;;;;;;8.93;2.50;;;14.60;99.90;;;;;;4876893;29;20128;-82
2023/04/14 12:13:20;;;;;;;9.07;2.50;;;14.50;99.90;;;;;;4876704;29;20105;-83
2023/04/14 12:15:47;;;;;;;12.00;2.33;;;14.60;99.90;;;;;;4861918;29;20137;-83
2023/04/14 12:18:14;;;;;;;10.25;2.20;;;14.60;99.90;;;;;;4862000;29;20087;-83
2023/04/14 12:21:02;;;;;;;9.82;2.58;;;14.50;99.60;;;;;;4862538;29;20053;-83
2023/04/14 12:23:33;;;;;;;8.38;2.50;;;14.30;97.30;;;;;;4876313;29;20089;-83
2023/04/14 12:26:00;;;;;;;8.27;2.38;;;14.30;99.40;;;;;;4876666;29;20045;-83
2023/04/14 12:28:28;;;;;;;10.38;2.88;;;14.20;99.60;;;;;;4874139;29;20051;-82
2023/04/14 12:31:01;;;;;;;8.10;2.50;;;14.30;99.80;;;;;;4895422;29;20498;-83
2023/04/14 12:33:29;;;;;;;6.53;2.35;;;14.60;99.50;;;;;;4876692;29;20459;-83
2023/04/14 12:36:12;;;;;;;10.50;2.88;;;14.80;99.30;;;;;;4876825;29;20110;-81
2023/04/14 12:38:38;;;;;;;6.50;2.25;;;15.10;99.10;;;;;;4861437;29;20530;-82
2023/04/14 12:41:05;;;;;;;8.68;2.60;;;15.20;99.30;;;;;;4861486;29;20129;-82
2023/04/14 12:43:39;;;;;;;8.43;2.45;;;15.40;98.80;;;;;;4862112;29;20049;-82
2023/04/14 12:46:07;;;;;;;7.93;2.33;;;15.50;99.10;;;;;;4879993;29;20586;-82
2023/04/14 12:48:45;;;;;;;8.82;2.42;;;15.60;98.50;;;;;;4895493;29;20088;-82
2023/04/14 12:51:14;;;;;;;8.07;2.25;;;15.70;97.90;;;;;;4864638;29;20072;-82
2023/04/14 12:53:43;;;;;;;6.68;1.83;;;15.80;98.10;;;;;;4864565;29;20581;-82
2023/04/14 12:56:26;;;;;;;7.72;2.20;;;15.90;97.90;;;;;;4864405;29;20034;-82
2023/04/14 12:58:53;;;;;;;6.82;2.40;;;16.00;97.80;;;;;;4847117;29;20049;-83
2023/04/14 13:01:21;;;;;;;8.65;3.20;;;16.20;98.40;;;;;;4851013;29;20141;-82